Chadstone Weather > Observations for 18/09/20

Select Day:



Observations
Time Temp Hum DP Wind Gust Dir Rain >9am Press
C % C kph kph mm hPa
00:00 11.4 90 9.8 8.8 18.4 SE 0.0 1034.4
00:10 11.4 90 9.8 8.2 15.8 SE 0.0 1034.2
00:20 11.4 90 9.8 6.9 14.8 SSE 0.0 1034.1
00:30 11.3 90 9.7 6.8 14.8 SSE 0.0 1034.1
00:40 11.2 90 9.6 6.6 14.8 SE 0.0 1034.0
00:50 11.2 90 9.6 6.6 13.3 SE 0.0 1033.8
01:00 11.2 90 9.6 5.0 6.1 SSE 0.0 1033.7
01:10 11.0 90 9.4 10.5 17.3 SE 0.0 1033.6
01:20 11.0 90 9.4 11.2 17.3 SE 0.0 1033.5
01:30 11.0 90 9.4 11.2 17.3 SE 0.0 1033.5
01:40 11.0 90 9.4 11.2 17.3 SE 0.0 1033.4
01:50 11.0 90 9.4 11.2 17.3 SE 0.0 1033.5
02:00 11.0 90 9.4 11.2 17.3 SE 0.0 1033.1
02:10 11.0 90 9.4 11.2 17.3 SE 0.0 1033.1
02:20 11.0 90 9.4 11.2 17.3 SE 0.0 1033.0
02:30 11.0 90 9.4 11.2 17.3 SE 0.0 1033.2
02:40 11.0 90 9.4 11.2 17.3 SE 0.0 1033.1
02:50 11.0 90 9.4 11.2 17.3 SE 0.0 1032.7
03:00 11.0 90 9.4 11.2 17.3 SE 0.0 1032.7
03:10 11.0 90 9.4 11.2 17.3 SE 0.0 1032.5
03:20 11.0 90 9.4 11.2 17.3 SE 0.0 1032.5
03:30 11.0 90 9.4 11.2 17.3 SE 0.0 1032.7
03:40 11.0 90 9.4 11.2 17.3 SE 0.0 1032.8
03:50 11.0 90 9.4 11.2 17.3 SE 0.0 1032.9
04:00 11.0 90 9.4 11.2 17.3 SE 0.0 1032.7
04:10 11.0 90 9.4 11.2 17.3 SE 0.0 1032.8
04:20 11.0 90 9.4 11.2 17.3 SE 0.0 1032.8
04:30 11.0 90 9.4 11.2 17.3 SE 0.0 1032.6
04:40 11.0 90 9.4 11.2 17.3 SE 0.0 1032.7
04:50 11.0 90 9.4 11.2 17.3 SE 0.0 1032.6
05:00 11.0 90 9.4 11.2 17.3 SE 0.0 1032.7
05:10 11.0 90 9.4 11.2 17.3 SE 0.0 1032.7
05:20 11.0 90 9.4 11.2 17.3 SE 0.0 1032.7
05:30 11.0 90 9.4 11.2 17.3 SE 0.0 1032.7
05:40 11.0 90 9.4 11.2 17.3 SE 0.0 1032.9
05:50 11.0 90 9.4 11.2 17.3 SE 0.0 1033.0
06:00 11.0 90 9.4 11.2 17.3 SE 0.0 1033.1
06:10 11.0 90 9.4 11.2 17.3 SE 0.0 1033.3
06:20 11.0 90 9.4 11.2 17.3 SE 0.0 1033.3
06:30 11.0 90 9.4 11.2 17.3 SE 0.0 1033.5
06:40 11.0 90 9.4 11.2 17.3 SE 0.0 1033.5
06:50 11.0 90 9.4 11.2 17.3 SE 0.0 1033.6
07:00 11.0 90 9.4 11.2 17.3 SE 0.0 1033.8
07:10 11.0 90 9.4 11.2 17.3 SE 0.0 1034.0
07:20 11.0 90 9.4 11.2 17.3 SE 0.0 1034.1
07:30 11.0 90 9.4 11.2 17.3 SE 0.0 1034.2
07:40 11.0 90 9.4 11.2 17.3 SE 0.0 1034.4
07:50 11.0 90 9.4 11.2 17.3 SE 0.0 1034.5
08:00 11.0 90 9.4 11.2 17.3 SE 0.0 1034.6
08:10 11.0 90 9.4 11.2 17.3 SE 0.0 1034.5
08:20 11.0 90 9.4 11.2 17.3 SE 0.0 1034.3
08:30 11.0 90 9.4 11.2 17.3 SE 0.0 1034.2
08:40 11.0 90 9.4 11.2 17.3 SE 0.0 1034.2
08:50 11.0 90 9.4 11.2 17.3 SE 0.0 1034.1
09:00 11.0 90 9.4 11.2 17.3 SE 0.0 1034.1
09:10 11.0 90 9.4 11.2 17.3 SE 0.0 1034.1
09:20 11.0 90 9.4 11.2 17.3 SE 0.0 1034.1
09:30 11.0 90 9.4 11.2 17.3 SE 0.0 1034.0
09:40 11.0 90 9.4 11.2 17.3 SE 0.0 1034.1
09:50 11.0 90 9.4 11.2 17.3 SE 0.0 1034.0
10:00 11.0 90 9.4 11.2 17.3 SE 0.0 1033.9
10:10 11.0 90 9.4 11.2 17.3 SE 0.0 1033.8
10:20 11.0 90 9.4 11.2 17.3 SE 0.0 1033.7
10:30 11.0 90 9.4 11.2 17.3 SE 0.0 1033.5
10:40 11.0 90 9.4 11.2 17.3 SE 0.0 1033.4
10:50 11.0 90 9.4 11.2 17.3 SE 0.0 1033.3
11:00 11.0 90 9.4 11.2 17.3 SE 0.0 1033.1
11:10 11.0 90 9.4 11.2 17.3 SE 0.0 1033.0
11:20 11.0 90 9.4 11.2 17.3 SE 0.0 1032.9
11:30 11.0 90 9.4 11.2 17.3 SE 0.0 1032.8
11:40 11.0 90 9.4 11.2 17.3 SE 0.0 1032.7
11:50 17.1 71 11.8 0.6 3.6 NNW 0.0 1032.2
12:00 17.4 71 12.1 1.7 7.2 N 0.0 1032.0
12:10 17.5 71 12.2 1.8 6.1 NW 0.0 1031.9
12:20 17.6 70 12.1 2.9 7.2 NW 0.0 1031.7
12:30 17.8 70 12.3 2.5 6.1 NE 0.0 1031.7
12:40 17.8 70 12.3 2.3 6.1 W 0.0 1031.4
12:50 18.0 69 12.2 1.5 6.1 NNE 0.0 1031.3
13:00 18.4 68 12.4 2.0 6.1 W 0.0 1031.0
13:10 18.8 67 12.6 3.1 8.6 NW 0.0 1030.9
13:20 18.9 66 12.4 1.0 6.1 NE 0.0 1030.6
13:30 19.1 65 12.4 2.9 9.7 NE 0.0 1030.7
13:40 19.1 65 12.4 4.5 11.2 NNE 0.0 1030.4
13:50 19.3 64 12.3 4.4 9.7 NNE 0.0 1030.4
14:00 19.6 65 12.9 2.3 6.1 N 0.0 1030.4
14:10 19.9 64 12.9 2.6 12.2 NNW 0.0 1030.5
14:20 19.8 64 12.8 3.1 11.2 N 0.0 1030.4
14:30 19.7 65 12.9 1.1 5.0 WSW 0.0 1030.2
14:40 19.5 65 12.8 3.7 12.2 W 0.0 1030.1
14:50 19.1 65 12.4 3.6 9.7 SW 0.0 1029.8
15:00 19.0 65 12.3 1.8 6.1 SW 0.0 1029.8
15:10 19.0 65 12.3 3.3 8.6 SSW 0.0 1029.7
15:20 18.7 67 12.5 2.1 7.2 WSW 0.0 1029.8
15:30 18.6 67 12.4 2.6 11.2 SSW 0.0 1029.9
15:40 18.7 67 12.5 1.6 6.1 S 0.0 1029.8
15:50 19.0 66 12.5 3.5 11.2 SSW 0.0 1029.9
16:00 19.1 66 12.6 3.3 9.7 S 0.0 1029.9
16:10 19.0 65 12.3 3.2 11.2 S 0.0 1029.6
16:20 18.7 67 12.5 2.5 11.2 S 0.0 1029.4
16:30 18.3 68 12.3 2.9 9.7 SSW 0.0 1029.5
16:40 18.0 69 12.2 0.8 7.2 SSW 0.0 1029.5
16:50 17.9 70 12.4 1.3 8.6 S 0.0 1029.7
17:00 17.6 69 11.9 1.9 6.1 S 0.0 1029.6
17:10 17.6 70 12.1 0.8 8.6 SSW 0.0 1029.9
17:20 17.6 69 11.9 0.9 7.2 NNW 0.0 1030.0
17:30 17.5 70 12.0 1.8 5.0 S 0.0 1030.2
17:40 17.4 70 11.9 1.1 5.0 SSE 0.0 1030.3
17:50 17.4 71 12.1 0.8 5.0 SE 0.0 1030.5
18:00 17.1 71 11.8 0.2 3.6 SSW 0.0 1030.6
18:10 17.0 72 11.9 0.1 3.6 SSE 0.0 1030.8
18:20 16.8 73 11.9 0.0 1.1 S 0.0 1030.7
18:30 16.7 73 11.8 0.0 1.1 SSE 0.0 1030.7
18:40 16.6 74 12.0 0.0 1.1 SW 0.0 1030.8
18:50 16.5 74 11.9 0.0 1.1 S 0.0 1030.8
19:00 16.4 74 11.8 0.0 2.5 SSW 0.0 1030.6
19:10 16.3 75 11.9 0.0 2.5 SW 0.0 1030.6
19:20 16.0 75 11.6 2.5 7.2 S 0.0 1030.5
19:30 15.9 76 11.7 0.0 1.1 S 0.0 1030.5
19:40 15.7 76 11.5 0.6 3.6 SE 0.0 1030.4
19:50 15.5 76 11.3 0.7 5.0 SSE 0.0 1030.4
20:00 15.3 77 11.3 0.0 0.0 N 0.0 1030.4
20:10 15.1 77 11.1 0.0 0.0 N 0.0 1030.4
20:20 14.9 79 11.3 0.0 0.0 N 0.0 1030.4
20:30 14.7 80 11.3 0.0 0.0 N 0.0 1030.4
20:40 14.6 80 11.2 0.0 0.0 N 0.0 1030.3
20:50 14.4 81 11.2 0.0 0.0 N 0.0 1030.3
21:00 14.3 82 11.3 0.0 0.0 N 0.0 1030.2
21:10 14.2 83 11.4 0.0 0.0 N 0.0 1030.2
21:20 14.2 84 11.5 0.0 0.0 N 0.0 1030.3
21:30 14.2 84 11.5 0.0 0.0 N 0.0 1030.2
21:40 14.0 84 11.3 0.0 0.0 N 0.0 1030.2
21:50 13.9 85 11.4 0.0 0.0 N 0.0 1030.0
22:00 13.6 86 11.3 0.0 0.0 N 0.0 1030.1
22:10 13.6 86 11.3 0.0 0.0 N 0.0 1030.1
22:20 13.5 86 11.2 0.0 0.0 N 0.0 1030.0
22:30 13.4 87 11.3 0.0 0.0 N 0.0 1029.9
22:40 13.4 87 11.3 0.0 0.0 N 0.0 1029.7
22:50 13.3 87 11.2 0.0 0.0 N 0.0 1029.7
23:00 13.3 87 11.2 0.0 0.0 N 0.0 1029.6
23:10 13.3 87 11.2 0.0 0.0 N 0.0 1029.6
23:20 13.3 87 11.2 0.0 0.0 N 0.0 1029.6
23:30 13.3 87 11.2 0.0 0.0 N 0.0 1029.6
23:40 13.3 87 11.2 0.0 0.0 N 0.0 1029.6
23:50 13.3 87 11.2 0.0 0.0 N 0.0 1029.6